Time;durP1;ratioP1;P1;durP2;ratioP2;P2;SDS_P1;SDS_P2;PMS_P1;PMS_P2;Temp;Humidity;BMP_temperature;BMP_pressure;BME280_temperature;BME280_humidity;BME280_pressure;Samples;Min_cycle;Max_cycle;Signal;HPM_P1;HPM_P2
2022/07/20 00:01:07;;;;;;;0.40;0.30;;;25.20;57.40;;;;;;6228728;28;20039;-45
2022/07/20 00:04:09;;;;;;;0.40;0.30;;;25.30;57.60;;;;;;6244412;28;20042;-49
2022/07/20 00:07:10;;;;;;;0.47;0.38;;;25.10;57.60;;;;;;6250117;28;20163;-44
2022/07/20 00:13:28;;;;;;;0.50;0.30;;;24.70;57.60;;;;;;6245573;28;20226;-44
2022/07/20 00:16:33;;;;;;;0.82;0.45;;;25.20;57.90;;;;;;6248083;28;20044;-47
2022/07/20 00:19:35;;;;;;;0.20;0.20;;;25.20;58.10;;;;;;6251839;28;20036;-43
2022/07/20 00:22:37;;;;;;;0.38;0.30;;;25.10;58.10;;;;;;6245020;28;20961;-44
2022/07/20 00:25:39;;;;;;;1.02;0.50;;;25.10;58.20;;;;;;6248873;28;20040;-48
2022/07/20 00:28:41;;;;;;;0.47;0.47;;;25.00;58.30;;;;;;6249341;28;20039;-51
2022/07/20 00:31:43;;;;;;;0.57;0.30;;;25.10;58.40;;;;;;6248805;28;20140;-46
2022/07/20 00:34:44;;;;;;;0.57;0.43;;;25.20;58.60;;;;;;6243745;28;20121;-47
2022/07/20 00:37:46;;;;;;;0.47;0.40;;;25.10;58.70;;;;;;6250754;28;20051;-46
2022/07/20 00:40:48;;;;;;;0.43;0.30;;;24.90;58.60;;;;;;6243725;28;20897;-42
2022/07/20 00:43:55;;;;;;;0.30;0.30;;;25.00;58.90;;;;;;6238439;28;20052;-44
2022/07/20 00:46:57;;;;;;;0.70;0.47;;;25.10;59.00;;;;;;6226679;28;20189;-49
2022/07/20 00:49:58;;;;;;;0.50;0.30;;;25.00;59.00;;;;;;6246777;28;20255;-44
2022/07/20 00:53:00;;;;;;;0.50;0.30;;;25.00;59.00;;;;;;6248190;28;20040;-45
2022/07/20 00:56:03;;;;;;;0.45;0.30;;;25.00;59.20;;;;;;6251142;28;20879;-47
2022/07/20 00:59:06;;;;;;;0.45;0.28;;;24.90;59.20;;;;;;6232432;28;20927;-48
2022/07/20 01:02:08;;;;;;;0.55;0.40;;;25.00;59.30;;;;;;6232838;28;20050;-44
2022/07/20 01:05:13;;;;;;;0.50;0.28;;;25.00;59.50;;;;;;6255402;28;20132;-46
2022/07/20 01:08:18;;;;;;;0.47;0.38;;;24.90;59.50;;;;;;6252214;28;20189;-46
2022/07/20 01:11:20;;;;;;;0.50;0.40;;;24.90;59.60;;;;;;6254687;28;20068;-46
2022/07/20 01:14:22;;;;;;;0.38;0.25;;;25.00;59.70;;;;;;6233302;28;20075;-46
2022/07/20 01:17:24;;;;;;;0.50;0.25;;;24.90;59.80;;;;;;6255091;28;20151;-45
2022/07/20 01:20:27;;;;;;;0.80;0.30;;;25.10;60.00;;;;;;6251470;28;20036;-46
2022/07/20 01:23:30;;;;;;;0.70;0.50;;;24.90;59.90;;;;;;6253749;28;20597;-46
2022/07/20 01:26:31;;;;;;;0.52;0.32;;;24.90;60.00;;;;;;6236493;28;20036;-42
2022/07/20 01:29:33;;;;;;;0.30;0.30;;;24.90;60.00;;;;;;6255351;28;20048;-45
2022/07/20 01:32:34;;;;;;;0.45;0.38;;;24.90;60.20;;;;;;6254291;28;20916;-47
2022/07/20 01:35:36;;;;;;;0.30;0.30;;;24.90;60.20;;;;;;6239260;28;20040;-46
2022/07/20 01:38:38;;;;;;;0.60;0.30;;;24.90;60.30;;;;;;6237485;28;20331;-45
2022/07/20 01:41:40;;;;;;;0.50;0.40;;;24.90;60.40;;;;;;6239521;28;20304;-47
2022/07/20 01:44:45;;;;;;;0.50;0.50;;;24.90;60.40;;;;;;6237469;28;20071;-48
2022/07/20 01:47:46;;;;;;;0.30;0.20;;;25.00;60.50;;;;;;6236759;28;20091;-46
2022/07/20 01:50:48;;;;;;;0.30;0.30;;;24.90;60.50;;;;;;6230726;28;20603;-48
2022/07/20 01:53:50;;;;;;;0.82;0.32;;;24.90;60.60;;;;;;6239752;28;20259;-43
2022/07/20 01:56:51;;;;;;;0.77;0.30;;;24.80;60.60;;;;;;6248082;28;20084;-48
2022/07/20 01:59:53;;;;;;;0.68;0.30;;;24.90;60.80;;;;;;6241675;28;20720;-45
2022/07/20 02:02:54;;;;;;;0.50;0.30;;;24.90;60.80;;;;;;6242708;28;20055;-48
2022/07/20 02:05:56;;;;;;;0.60;0.40;;;24.90;60.90;;;;;;6234897;28;20163;-46
2022/07/20 02:08:59;;;;;;;0.90;0.47;;;24.80;60.90;;;;;;6245598;28;20641;-45
2022/07/20 02:12:00;;;;;;;0.63;0.40;;;24.90;61.00;;;;;;6245666;28;20183;-45
2022/07/20 02:15:06;;;;;;;0.80;0.45;;;24.90;61.10;;;;;;6244969;28;20070;-45
2022/07/20 02:18:08;;;;;;;0.65;0.30;;;24.90;61.20;;;;;;6229586;28;20057;-46
2022/07/20 02:21:11;;;;;;;0.20;0.20;;;24.90;61.30;;;;;;6227285;28;20044;-45
2022/07/20 02:24:13;;;;;;;0.63;0.32;;;24.90;61.40;;;;;;6240025;28;20924;-45
2022/07/20 02:27:15;;;;;;;1.05;0.40;;;24.90;61.40;;;;;;6245806;28;20101;-49
2022/07/20 02:30:16;;;;;;;0.50;0.30;;;25.10;61.60;;;;;;6247485;28;20431;-50
2022/07/20 02:33:18;;;;;;;0.60;0.40;;;24.90;61.60;;;;;;6244976;28;20047;-47
2022/07/20 02:36:19;;;;;;;0.38;0.30;;;24.90;61.70;;;;;;6228777;28;20044;-47
2022/07/20 02:39:21;;;;;;;0.47;0.40;;;24.90;61.90;;;;;;6237776;28;20359;-48
2022/07/20 02:42:23;;;;;;;0.35;0.30;;;24.80;61.90;;;;;;6245510;28;20033;-46
2022/07/20 02:45:25;;;;;;;0.50;0.40;;;25.00;62.10;;;;;;6235728;28;20599;-46
2022/07/20 02:48:26;;;;;;;0.40;0.30;;;24.90;62.20;;;;;;6242140;28;20039;-48
2022/07/20 02:51:28;;;;;;;0.52;0.40;;;24.90;62.30;;;;;;6244315;28;20152;-52
2022/07/20 02:54:30;;;;;;;0.68;0.47;;;24.90;62.40;;;;;;6248368;28;20135;-47
2022/07/20 02:57:31;;;;;;;0.30;0.20;;;24.90;62.50;;;;;;6258878;28;20865;-47
2022/07/20 03:00:33;;;;;;;0.20;0.20;;;24.80;62.50;;;;;;6238484;28;20033;-44
2022/07/20 03:03:35;;;;;;;0.38;0.30;;;24.90;62.60;;;;;;6257504;28;20235;-44
2022/07/20 03:06:36;;;;;;;0.30;0.30;;;24.90;62.70;;;;;;6257390;28;20028;-45
2022/07/20 03:09:42;;;;;;;0.28;0.25;;;24.90;62.70;;;;;;6255649;28;20155;-47
2022/07/20 03:12:44;;;;;;;0.40;0.30;;;24.90;62.90;;;;;;6252977;28;20173;-47
2022/07/20 03:15:45;;;;;;;0.30;0.20;;;24.90;62.80;;;;;;6256510;28;20087;-46
2022/07/20 03:18:47;;;;;;;0.30;0.20;;;24.80;62.80;;;;;;6254737;28;20521;-44
2022/07/20 03:21:49;;;;;;;0.45;0.30;;;25.00;62.90;;;;;;6255069;28;20054;-44
2022/07/20 03:24:51;;;;;;;0.77;0.50;;;24.80;62.80;;;;;;6257094;28;20099;-47
2022/07/20 03:27:53;;;;;;;1.63;0.50;;;24.90;63.00;;;;;;6246022;28;20907;-48
2022/07/20 03:30:55;;;;;;;0.45;0.30;;;24.90;63.10;;;;;;6254792;28;20041;-49
2022/07/20 03:33:56;;;;;;;0.65;0.35;;;24.90;63.10;;;;;;6249796;28;20212;-46
2022/07/20 03:36:58;;;;;;;1.77;0.40;;;24.90;63.00;;;;;;6241981;28;20045;-46
2022/07/20 03:40:01;;;;;;;0.65;0.40;;;25.00;63.00;;;;;;6240017;28;20087;-48
2022/07/20 03:43:02;;;;;;;0.65;0.30;;;25.00;63.00;;;;;;6235964;28;20460;-46
2022/07/20 03:46:10;;;;;;;0.63;0.43;;;24.90;62.90;;;;;;6238498;28;20832;-44
2022/07/20 03:49:11;;;;;;;0.60;0.35;;;24.90;63.00;;;;;;6238054;28;20043;-45
2022/07/20 03:52:13;;;;;;;1.20;0.50;;;25.00;63.10;;;;;;6240571;28;20314;-43
2022/07/20 03:55:17;;;;;;;0.52;0.30;;;25.00;63.10;;;;;;6239519;28;20749;-46
2022/07/20 03:58:18;;;;;;;0.40;0.40;;;24.90;63.10;;;;;;6240707;28;20293;-45
2022/07/20 04:01:20;;;;;;;0.30;0.30;;;24.90;63.20;;;;;;6236860;28;20411;-47
2022/07/20 04:04:22;;;;;;;0.30;0.30;;;24.80;63.10;;;;;;6241228;28;20529;-45
2022/07/20 04:07:23;;;;;;;0.60;0.30;;;24.90;63.20;;;;;;6244434;28;20099;-45
2022/07/20 04:10:26;;;;;;;0.63;0.50;;;24.90;63.20;;;;;;6244879;28;20574;-46
2022/07/20 04:13:27;;;;;;;0.30;0.30;;;24.90;63.30;;;;;;6243710;28;20044;-41
2022/07/20 04:16:29;;;;;;;0.20;0.20;;;24.90;63.20;;;;;;6238498;28;20151;-42
2022/07/20 04:19:31;;;;;;;0.40;0.30;;;25.10;63.40;;;;;;6228369;28;20052;-41
2022/07/20 04:22:33;;;;;;;0.25;0.20;;;24.90;63.30;;;;;;6237454;28;20280;-45
2022/07/20 04:25:35;;;;;;;0.22;0.20;;;25.00;63.30;;;;;;6221901;28;20857;-45
2022/07/20 04:28:36;;;;;;;0.40;0.40;;;24.90;64.00;;;;;;6237435;28;20043;-44
2022/07/20 04:31:38;;;;;;;0.40;0.30;;;24.90;63.40;;;;;;6245499;28;21109;-45
2022/07/20 04:34:40;;;;;;;0.50;0.30;;;25.00;63.40;;;;;;6239947;28;20232;-45
2022/07/20 04:37:44;;;;;;;0.40;0.20;;;25.00;63.40;;;;;;6228251;28;20703;-46
2022/07/20 04:40:47;;;;;;;0.47;0.35;;;24.90;63.40;;;;;;6234140;28;20440;-46
2022/07/20 04:43:49;;;;;;;0.50;0.40;;;24.90;63.30;;;;;;6234525;28;20155;-48
2022/07/20 04:46:53;;;;;;;0.45;0.30;;;24.90;63.30;;;;;;6237360;28;20386;-45
2022/07/20 04:49:55;;;;;;;0.40;0.32;;;24.90;63.30;;;;;;6239249;28;20290;-48
2022/07/20 04:52:57;;;;;;;0.40;0.40;;;25.00;63.40;;;;;;6224095;28;20108;-45
2022/07/20 04:55:59;;;;;;;0.47;0.28;;;24.90;63.30;;;;;;6217663;28;20052;-47
2022/07/20 04:59:01;;;;;;;0.50;0.20;;;25.00;63.40;;;;;;6232103;28;20316;-45
2022/07/20 05:02:02;;;;;;;0.32;0.25;;;24.90;63.30;;;;;;6226297;28;20143;-47
2022/07/20 05:05:05;;;;;;;0.30;0.30;;;24.90;63.30;;;;;;6234800;28;20036;-45
2022/07/20 05:08:06;;;;;;;0.30;0.30;;;24.90;63.30;;;;;;6229078;28;20161;-45
2022/07/20 05:11:09;;;;;;;0.43;0.30;;;25.00;63.30;;;;;;6227511;28;20136;-42
2022/07/20 05:14:12;;;;;;;0.40;0.30;;;25.10;63.40;;;;;;6229819;28;20296;-46
2022/07/20 05:17:15;;;;;;;0.60;0.40;;;25.00;63.40;;;;;;6233330;28;20580;-48
2022/07/20 05:20:17;;;;;;;0.65;0.40;;;25.00;63.30;;;;;;6241275;28;20064;-43
2022/07/20 05:23:18;;;;;;;0.40;0.30;;;25.10;63.40;;;;;;6208088;28;20052;-42
2022/07/20 05:26:21;;;;;;;0.45;0.22;;;25.00;63.30;;;;;;6241805;28;20045;-44
2022/07/20 05:29:22;;;;;;;0.40;0.20;;;24.80;63.20;;;;;;6237192;28;20051;-45
2022/07/20 05:32:24;;;;;;;0.32;0.30;;;25.00;63.30;;;;;;6233267;28;20104;-42
2022/07/20 05:35:28;;;;;;;0.50;0.40;;;25.00;63.30;;;;;;6238942;28;20886;-50
2022/07/20 05:38:30;;;;;;;0.30;0.30;;;25.00;63.90;;;;;;6240205;28;20083;-45
2022/07/20 05:41:40;;;;;;;0.32;0.32;;;25.10;63.30;;;;;;6240863;28;20071;-44
2022/07/20 05:44:42;;;;;;;0.47;0.40;;;25.00;63.20;;;;;;6242212;28;20043;-44
2022/07/20 05:47:44;;;;;;;0.47;0.30;;;25.10;63.30;;;;;;6244274;28;20043;-43
2022/07/20 05:50:49;;;;;;;0.98;0.40;;;25.10;63.30;;;;;;6239269;28;20191;-47
2022/07/20 05:53:51;;;;;;;0.40;0.32;;;25.10;63.30;;;;;;6242113;28;20045;-44
2022/07/20 05:56:53;;;;;;;0.40;0.40;;;24.90;63.20;;;;;;6238594;28;20178;-43
2022/07/20 05:59:54;;;;;;;0.20;0.20;;;25.10;63.30;;;;;;6234784;28;20073;-43
2022/07/20 06:02:56;;;;;;;0.50;0.35;;;25.10;63.30;;;;;;6239825;28;20075;-45
2022/07/20 06:06:01;;;;;;;0.95;0.60;;;24.90;63.20;;;;;;6221373;28;20070;-44
2022/07/20 06:09:02;;;;;;;1.65;0.77;;;25.00;63.30;;;;;;6233576;28;20044;-46
2022/07/20 06:12:23;;;;;;;1.37;0.90;;;25.00;63.30;;;;;;6232493;28;20152;-48
2022/07/20 06:15:25;;;;;;;3.10;0.95;;;25.00;63.30;;;;;;6233784;28;20077;-43
2022/07/20 06:18:28;;;;;;;1.50;0.90;;;25.00;63.10;;;;;;6217395;28;20052;-44
2022/07/20 06:21:29;;;;;;;2.63;1.27;;;25.10;63.00;;;;;;6234694;28;20051;-44
2022/07/20 06:24:31;;;;;;;2.00;1.00;;;25.10;62.90;;;;;;6228827;28;21010;-44
2022/07/20 06:27:33;;;;;;;2.15;0.98;;;25.20;62.90;;;;;;6226258;28;20079;-43
2022/07/20 06:30:35;;;;;;;1.48;1.00;;;25.20;62.80;;;;;;6222899;28;20045;-45
2022/07/20 06:33:36;;;;;;;1.33;0.70;;;25.10;62.70;;;;;;6226062;28;20033;-44
2022/07/20 06:36:38;;;;;;;1.88;0.82;;;25.20;62.70;;;;;;6197477;28;20126;-43
2022/07/20 06:39:40;;;;;;;2.92;0.80;;;25.30;62.80;;;;;;6189586;28;20063;-42
2022/07/20 06:42:49;;;;;;;2.22;0.90;;;25.40;63.40;;;;;;6200528;28;20238;-41
2022/07/20 06:45:51;;;;;;;2.40;1.20;;;25.30;62.70;;;;;;6198711;28;20114;-41
2022/07/20 06:48:53;;;;;;;1.55;1.00;;;25.30;62.50;;;;;;6202987;28;20211;-44
2022/07/20 06:51:55;;;;;;;1.65;0.80;;;25.30;62.50;;;;;;6180484;28;20155;-44
2022/07/20 06:54:57;;;;;;;1.63;0.80;;;25.30;62.40;;;;;;6163795;28;20059;-42
2022/07/20 06:57:59;;;;;;;1.77;0.93;;;25.40;62.40;;;;;;6191842;28;20056;-42
2022/07/20 07:01:01;;;;;;;4.93;1.65;;;25.40;62.30;;;;;;6155415;28;21318;-45
2022/07/20 07:04:03;;;;;;;1.02;0.73;;;25.40;62.20;;;;;;6140134;28;20048;-46
2022/07/20 07:07:05;;;;;;;2.67;0.90;;;25.50;62.20;;;;;;6146219;28;20046;-44
2022/07/20 07:10:07;;;;;;;3.03;0.75;;;25.50;62.10;;;;;;6158634;28;20075;-46
2022/07/20 07:13:09;;;;;;;1.10;0.90;;;25.50;62.10;;;;;;6145197;28;20051;-44
2022/07/20 07:16:11;;;;;;;1.27;0.90;;;25.50;62.00;;;;;;6160540;28;20056;-48
2022/07/20 07:19:13;;;;;;;1.55;1.00;;;25.60;62.10;;;;;;6149920;28;21944;-41
2022/07/20 07:22:14;;;;;;;1.45;0.80;;;25.40;61.90;;;;;;6087330;28;21052;-43
2022/07/20 07:25:16;;;;;;;1.40;0.70;;;25.60;62.10;;;;;;6118467;28;20050;-42
2022/07/20 07:28:19;;;;;;;3.30;0.90;;;25.60;62.20;;;;;;6132397;28;20068;-41
2022/07/20 07:31:20;;;;;;;1.58;0.60;;;25.60;62.20;;;;;;6108305;28;20154;-41
2022/07/20 07:34:22;;;;;;;0.95;0.80;;;25.70;62.30;;;;;;6110700;28;20040;-44
2022/07/20 07:37:24;;;;;;;0.85;0.60;;;25.60;62.20;;;;;;6117327;28;21081;-40
2022/07/20 07:40:25;;;;;;;1.23;0.65;;;25.70;62.20;;;;;;6132652;28;20051;-42
2022/07/20 07:43:28;;;;;;;1.15;0.70;;;25.80;62.10;;;;;;6129764;28;21387;-50
2022/07/20 07:46:30;;;;;;;0.93;0.50;;;25.70;62.00;;;;;;6119833;28;20113;-40
2022/07/20 07:49:32;;;;;;;0.40;0.38;;;25.70;61.90;;;;;;6140887;28;20045;-41
2022/07/20 07:52:34;;;;;;;0.77;0.52;;;25.80;61.90;;;;;;6107537;28;20155;-42
2022/07/20 07:55:36;;;;;;;2.25;0.50;;;25.80;61.90;;;;;;6133596;28;20062;-44
2022/07/20 07:58:38;;;;;;;0.85;0.55;;;25.80;61.80;;;;;;6132051;28;20162;-43
2022/07/20 08:01:40;;;;;;;0.75;0.60;;;25.70;61.70;;;;;;6117650;28;20040;-42
2022/07/20 08:04:42;;;;;;;0.55;0.30;;;25.80;61.70;;;;;;6100901;28;20055;-39
2022/07/20 08:07:45;;;;;;;0.82;0.57;;;25.80;61.60;;;;;;6120945;28;20048;-41
2022/07/20 08:10:47;;;;;;;0.50;0.40;;;25.80;61.50;;;;;;6123749;28;20051;-42
2022/07/20 08:13:49;;;;;;;1.05;0.50;;;25.90;61.50;;;;;;6093481;28;20757;-41
2022/07/20 08:16:51;;;;;;;0.70;0.50;;;25.90;61.30;;;;;;6131558;28;20048;-42
2022/07/20 08:19:53;;;;;;;0.65;0.40;;;25.90;61.10;;;;;;6137608;28;20040;-41
2022/07/20 08:22:56;;;;;;;0.70;0.45;;;25.90;61.00;;;;;;6107958;28;20048;-42
2022/07/20 08:26:00;;;;;;;0.75;0.45;;;25.90;60.80;;;;;;6130381;28;20159;-43
2022/07/20 08:29:03;;;;;;;1.10;0.43;;;26.00;61.30;;;;;;6121873;28;20165;-40
2022/07/20 08:32:14;;;;;;;1.17;0.40;;;25.90;60.40;;;;;;6094183;28;20048;-41
2022/07/20 08:35:16;;;;;;;0.75;0.50;;;25.90;60.40;;;;;;6136245;28;20040;-42
2022/07/20 08:38:17;;;;;;;0.70;0.52;;;26.00;60.30;;;;;;6136662;28;20036;-42
2022/07/20 08:41:20;;;;;;;0.77;0.50;;;25.90;60.10;;;;;;6104100;28;20040;-41
2022/07/20 08:44:22;;;;;;;0.57;0.43;;;25.90;60.00;;;;;;6108311;28;20052;-43
2022/07/20 08:47:28;;;;;;;0.60;0.50;;;25.90;59.90;;;;;;6127235;28;20040;-41
2022/07/20 08:50:32;;;;;;;0.57;0.40;;;25.90;59.90;;;;;;6147371;28;20106;-45
2022/07/20 08:53:34;;;;;;;0.45;0.30;;;25.90;60.00;;;;;;6100147;28;21586;-42
2022/07/20 08:56:43;;;;;;;0.57;0.40;;;25.90;60.10;;;;;;6157977;28;20051;-43
2022/07/20 08:59:46;;;;;;;0.40;0.30;;;25.90;60.30;;;;;;6152181;28;20047;-42
2022/07/20 09:02:52;;;;;;;0.70;0.45;;;26.00;60.50;;;;;;6071288;28;22177;-40
2022/07/20 09:06:06;;;;;;;0.73;0.40;;;25.90;60.70;;;;;;6060480;28;20036;-43
2022/07/20 09:09:08;;;;;;;0.50;0.40;;;26.00;61.00;;;;;;6126691;28;20051;-42
2022/07/20 09:12:09;;;;;;;0.45;0.40;;;26.10;61.00;;;;;;6103938;28;20044;-41
2022/07/20 09:15:24;;;;;;;0.52;0.40;;;26.00;60.90;;;;;;6131801;28;20062;-40
2022/07/20 09:18:28;;;;;;;0.95;0.60;;;26.00;60.70;;;;;;6115082;28;20102;-40
2022/07/20 09:21:32;;;;;;;0.77;0.40;;;25.90;60.40;;;;;;6131717;28;20220;-43
2022/07/20 09:24:33;;;;;;;0.73;0.52;;;26.00;60.30;;;;;;6089464;28;20073;-40
2022/07/20 09:27:35;;;;;;;0.43;0.32;;;26.00;60.10;;;;;;6118721;28;20054;-42
2022/07/20 09:30:38;;;;;;;0.60;0.30;;;26.10;60.00;;;;;;6128869;28;20040;-42
2022/07/20 09:33:47;;;;;;;0.50;0.40;;;26.10;59.80;;;;;;6113264;28;20083;-40
2022/07/20 09:36:49;;;;;;;0.65;0.35;;;26.00;59.60;;;;;;6118587;28;21077;-41
2022/07/20 09:40:06;;;;;;;0.30;0.22;;;26.10;59.50;;;;;;6131636;28;20158;-42
2022/07/20 09:43:08;;;;;;;1.42;0.30;;;26.10;59.30;;;;;;6106298;28;21351;-47
2022/07/20 09:46:13;;;;;;;0.40;0.30;;;26.10;59.20;;;;;;6125193;28;20052;-42
2022/07/20 09:49:15;;;;;;;0.75;0.30;;;26.00;58.90;;;;;;6140097;28;20049;-44
2022/07/20 09:52:18;;;;;;;0.55;0.30;;;26.10;58.70;;;;;;6119624;28;21288;-44
2022/07/20 09:55:37;;;;;;;0.70;0.30;;;26.10;58.40;;;;;;6130980;28;20048;-40
2022/07/20 09:58:39;;;;;;;0.40;0.30;;;26.00;58.10;;;;;;6132600;28;20044;-44
2022/07/20 10:01:45;;;;;;;0.38;0.30;;;26.00;57.80;;;;;;6155574;28;20028;-44
2022/07/20 10:04:48;;;;;;;0.40;0.40;;;26.20;57.50;;;;;;6073420;28;22277;-42
2022/07/20 10:07:52;;;;;;;0.52;0.30;;;26.10;57.00;;;;;;6134472;28;20059;-43
2022/07/20 10:10:56;;;;;;;1.25;0.30;;;26.20;56.80;;;;;;6151154;28;21177;-40
2022/07/20 10:14:01;;;;;;;0.52;0.20;;;26.20;56.50;;;;;;6112183;28;20040;-39
2022/07/20 10:17:04;;;;;;;0.40;0.20;;;26.10;56.20;;;;;;6146187;28;20036;-40
2022/07/20 10:20:27;;;;;;;3.42;0.30;;;26.10;56.00;;;;;;6164937;28;20044;-38
2022/07/20 10:23:31;;;;;;;0.40;0.30;;;26.10;55.70;;;;;;6118661;28;20047;-40
2022/07/20 10:26:33;;;;;;;0.28;0.20;;;26.10;55.50;;;;;;6172028;28;20381;-40
2022/07/20 10:29:36;;;;;;;0.68;0.22;;;26.10;55.20;;;;;;6172834;28;20099;-40
2022/07/20 10:32:51;;;;;;;0.20;0.20;;;26.10;54.90;;;;;;6120296;28;21318;-42
2022/07/20 10:36:41;;;;;;;0.50;0.20;;;26.10;54.40;;;;;;6178537;28;21078;-42
2022/07/20 10:39:45;;;;;;;0.50;0.20;;;26.10;54.50;;;;;;6149622;28;20048;-40
2022/07/20 10:42:48;;;;;;;0.27;0.20;;;26.10;53.80;;;;;;6148354;28;20238;-40
2022/07/20 10:45:49;;;;;;;0.20;0.20;;;26.10;53.70;;;;;;6139636;28;20164;-39
2022/07/20 10:48:52;;;;;;;0.52;0.20;;;25.90;53.40;;;;;;6159851;28;20048;-40
2022/07/20 10:52:26;;;;;;;0.55;0.30;;;26.00;53.10;;;;;;6188263;28;20044;-40
2022/07/20 10:55:53;;;;;;;0.22;0.15;;;26.00;52.90;;;;;;6150469;28;20044;-41
2022/07/20 10:58:59;;;;;;;0.50;0.20;;;26.00;52.90;;;;;;6173244;28;20150;-42
2022/07/20 11:02:00;;;;;;;0.60;0.30;;;26.00;53.60;;;;;;6191719;28;20253;-40
2022/07/20 11:05:04;;;;;;;1.15;0.22;;;26.00;53.00;;;;;;6185353;28;20043;-42
2022/07/20 11:08:07;;;;;;;0.55;0.30;;;26.00;52.90;;;;;;6199003;28;20293;-41
2022/07/20 11:11:14;;;;;;;0.40;0.40;;;25.90;52.80;;;;;;6172400;28;20055;-42
2022/07/20 11:14:17;;;;;;;0.43;0.43;;;25.80;52.60;;;;;;6156740;28;20036;-39
2022/07/20 11:17:19;;;;;;;0.50;0.30;;;25.90;52.60;;;;;;6190639;28;20572;-42
2022/07/20 11:20:22;;;;;;;0.93;0.30;;;25.90;52.60;;;;;;6199548;28;20112;-40
2022/07/20 11:23:26;;;;;;;0.55;0.40;;;25.90;52.50;;;;;;6176083;28;20117;-43
2022/07/20 11:26:28;;;;;;;0.30;0.30;;;25.90;52.50;;;;;;6183784;28;20105;-40
2022/07/20 11:29:30;;;;;;;0.32;0.30;;;25.90;52.50;;;;;;6159534;28;20153;-42
2022/07/20 11:32:32;;;;;;;0.50;0.40;;;26.00;52.50;;;;;;6168671;28;20142;-42
2022/07/20 11:35:41;;;;;;;0.60;0.45;;;25.90;52.20;;;;;;6167721;28;21311;-39
2022/07/20 11:38:45;;;;;;;1.30;0.40;;;25.90;52.00;;;;;;6189153;28;20151;-40
2022/07/20 11:41:49;;;;;;;1.00;0.52;;;25.90;51.90;;;;;;6165999;28;20079;-43
2022/07/20 11:44:59;;;;;;;1.60;0.80;;;26.00;52.00;;;;;;6150409;28;20085;-43
2022/07/20 11:48:03;;;;;;;3.33;1.20;;;25.90;52.10;;;;;;6161913;28;20075;-43
2022/07/20 11:51:25;;;;;;;2.15;1.17;;;25.90;52.10;;;;;;6155386;28;20126;-43
2022/07/20 11:54:29;;;;;;;1.30;0.77;;;25.80;51.90;;;;;;6120833;28;20048;-45
2022/07/20 11:57:34;;;;;;;1.95;1.05;;;25.90;52.00;;;;;;6159659;28;20146;-44
2022/07/20 12:00:36;;;;;;;1.67;0.85;;;25.80;51.80;;;;;;6152395;28;20159;-44
2022/07/20 12:03:39;;;;;;;1.40;0.75;;;26.00;51.90;;;;;;6129971;28;22257;-42
2022/07/20 12:06:42;;;;;;;0.60;0.60;;;25.90;51.70;;;;;;6110432;28;20059;-44
2022/07/20 12:09:44;;;;;;;2.72;0.65;;;25.90;51.60;;;;;;6131053;28;20048;-43
2022/07/20 12:12:45;;;;;;;0.93;0.70;;;26.00;51.70;;;;;;6132168;28;20175;-45
2022/07/20 12:15:59;;;;;;;1.35;0.70;;;26.00;51.60;;;;;;6143125;28;20146;-46
2022/07/20 12:19:04;;;;;;;0.88;0.57;;;26.00;51.60;;;;;;6164833;28;20423;-46
2022/07/20 12:22:06;;;;;;;0.60;0.60;;;26.00;51.70;;;;;;6105183;28;20163;-46
2022/07/20 12:25:10;;;;;;;1.20;0.77;;;26.10;51.70;;;;;;6142805;28;20044;-42
2022/07/20 12:28:12;;;;;;;1.00;0.80;;;26.00;51.50;;;;;;6140242;28;20583;-45
2022/07/20 12:31:33;;;;;;;2.33;1.00;;;26.10;52.20;;;;;;6136825;28;20044;-46
2022/07/20 12:34:49;;;;;;;1.33;0.90;;;26.10;51.50;;;;;;6114514;28;20055;-44
2022/07/20 12:37:52;;;;;;;1.02;0.93;;;26.10;51.50;;;;;;6138403;28;22830;-42
2022/07/20 12:40:54;;;;;;;1.05;0.85;;;26.10;51.50;;;;;;6112217;28;20727;-40
2022/07/20 12:43:56;;;;;;;1.65;0.80;;;26.00;51.50;;;;;;6114442;28;41375;-43
2022/07/20 12:46:57;;;;;;;1.30;0.82;;;26.10;51.60;;;;;;6131439;28;20055;-44
2022/07/20 12:49:59;;;;;;;0.90;0.90;;;25.90;51.70;;;;;;6123693;28;21339;-42
2022/07/20 12:53:01;;;;;;;0.85;0.85;;;26.10;52.00;;;;;;6108196;28;20051;-42
2022/07/20 12:56:05;;;;;;;1.02;0.93;;;26.10;52.10;;;;;;6103143;28;20048;-44
2022/07/20 12:59:07;;;;;;;0.90;0.75;;;26.10;52.20;;;;;;6090591;28;20401;-41
2022/07/20 13:02:10;;;;;;;1.50;1.02;;;26.00;52.10;;;;;;6093258;28;20225;-44
2022/07/20 13:05:11;;;;;;;0.88;0.77;;;26.10;52.10;;;;;;6066542;28;20044;-41
2022/07/20 13:08:14;;;;;;;1.85;1.10;;;26.10;52.10;;;;;;6107080;28;20036;-41
2022/07/20 13:11:15;;;;;;;1.10;1.00;;;26.10;52.10;;;;;;6099636;28;20070;-41
2022/07/20 13:14:19;;;;;;;1.20;1.05;;;26.10;52.10;;;;;;6124462;28;20150;-43
2022/07/20 13:17:21;;;;;;;1.35;1.25;;;26.10;52.20;;;;;;6085002;28;20040;-42
2022/07/20 13:20:23;;;;;;;2.03;1.10;;;26.20;52.20;;;;;;6147476;28;20047;-40
2022/07/20 13:23:25;;;;;;;1.13;1.02;;;26.00;52.10;;;;;;6116452;28;20136;-42
2022/07/20 13:26:27;;;;;;;1.58;1.02;;;26.10;52.30;;;;;;6145199;28;22264;-43
2022/07/20 13:29:28;;;;;;;2.00;1.00;;;26.70;52.70;;;;;;6134562;28;20443;-40
2022/07/20 13:32:30;;;;;;;1.02;0.93;;;26.10;52.40;;;;;;6113161;28;21532;-47
2022/07/20 13:35:32;;;;;;;1.30;1.20;;;26.10;52.60;;;;;;6128087;28;20058;-44
2022/07/20 13:38:35;;;;;;;2.03;1.10;;;26.20;52.60;;;;;;6145015;28;20052;-51
2022/07/20 13:41:37;;;;;;;2.00;1.35;;;26.10;52.70;;;;;;6116797;28;20044;-51
2022/07/20 13:44:39;;;;;;;2.90;1.15;;;26.00;52.60;;;;;;6138757;28;20163;-45
2022/07/20 13:47:41;;;;;;;2.78;1.27;;;26.10;52.70;;;;;;6148930;28;20048;-46
2022/07/20 13:50:44;;;;;;;1.35;1.25;;;26.10;52.70;;;;;;6136419;28;21459;-46
2022/07/20 13:54:06;;;;;;;1.60;1.50;;;26.10;52.70;;;;;;6082496;28;20113;-49
2022/07/20 13:57:09;;;;;;;1.20;1.10;;;26.00;52.60;;;;;;6146401;28;20240;-47
2022/07/20 14:00:12;;;;;;;1.30;1.20;;;26.10;52.50;;;;;;6116093;28;20083;-46
2022/07/20 14:03:14;;;;;;;1.20;1.10;;;26.00;52.50;;;;;;6111407;28;20056;-46
2022/07/20 14:06:15;;;;;;;1.30;1.20;;;26.00;52.50;;;;;;6113447;28;22478;-45
2022/07/20 14:09:17;;;;;;;4.15;1.33;;;26.00;52.50;;;;;;6150130;28;20044;-47
2022/07/20 14:12:20;;;;;;;1.38;1.17;;;26.00;52.40;;;;;;6112013;28;38556;-47
2022/07/20 14:15:23;;;;;;;1.48;1.38;;;25.90;52.30;;;;;;6136169;28;20040;-51
2022/07/20 14:18:26;;;;;;;1.30;1.20;;;26.00;52.40;;;;;;6106344;28;20170;-51
2022/07/20 14:21:28;;;;;;;1.70;1.30;;;26.10;52.40;;;;;;6123554;28;21222;-43
2022/07/20 14:24:30;;;;;;;1.20;1.10;;;26.10;52.30;;;;;;6129179;28;20036;-46
2022/07/20 14:27:32;;;;;;;1.83;1.50;;;26.00;52.20;;;;;;6139832;28;20072;-47
2022/07/20 14:30:35;;;;;;;1.30;1.08;;;26.10;52.20;;;;;;6138915;28;22338;-45
2022/07/20 14:33:36;;;;;;;1.67;1.52;;;26.10;52.10;;;;;;6114048;28;20350;-44
2022/07/20 14:36:38;;;;;;;1.25;1.15;;;26.10;52.10;;;;;;6121533;28;20039;-48
2022/07/20 14:39:41;;;;;;;1.40;1.20;;;26.10;52.10;;;;;;6108239;28;20048;-48
2022/07/20 14:42:43;;;;;;;1.40;1.30;;;26.10;52.10;;;;;;6093966;28;20049;-52
2022/07/20 14:45:45;;;;;;;1.92;1.52;;;26.10;52.10;;;;;;6115010;28;20083;-49
2022/07/20 14:48:47;;;;;;;1.58;1.33;;;26.10;52.20;;;;;;6140244;28;20095;-45
2022/07/20 14:51:51;;;;;;;1.65;1.20;;;26.10;52.20;;;;;;6139123;28;20043;-49
2022/07/20 14:54:53;;;;;;;1.30;1.20;;;26.10;52.20;;;;;;6144761;28;21003;-46
2022/07/20 14:57:54;;;;;;;4.28;1.52;;;26.20;52.30;;;;;;6124988;28;21685;-47
2022/07/20 15:00:56;;;;;;;1.58;1.38;;;26.10;52.30;;;;;;6151816;28;20076;-48
2022/07/20 15:04:02;;;;;;;1.27;1.15;;;26.10;52.30;;;;;;6134077;28;20037;-47
2022/07/20 15:07:04;;;;;;;1.30;1.20;;;26.10;52.30;;;;;;6122242;28;20170;-51
2022/07/20 15:10:07;;;;;;;1.63;1.38;;;26.20;52.30;;;;;;6163015;28;20047;-46
2022/07/20 15:13:09;;;;;;;1.38;1.20;;;26.20;52.30;;;;;;6145267;28;20132;-48
2022/07/20 15:16:11;;;;;;;1.77;1.40;;;26.20;52.30;;;;;;6161612;28;20044;-47
2022/07/20 15:19:12;;;;;;;1.50;1.40;;;26.20;52.40;;;;;;6170398;28;20040;-50
2022/07/20 15:22:14;;;;;;;2.78;1.35;;;26.20;52.20;;;;;;6132762;28;20139;-45
2022/07/20 15:25:16;;;;;;;1.70;1.55;;;26.20;52.20;;;;;;6166715;28;20044;-49
2022/07/20 15:28:18;;;;;;;1.63;1.33;;;26.20;52.40;;;;;;6169094;28;20075;-50
2022/07/20 15:31:20;;;;;;;1.40;1.30;;;26.20;52.20;;;;;;6145502;28;21611;-49
2022/07/20 15:34:22;;;;;;;1.38;1.27;;;26.10;52.10;;;;;;6145965;28;20051;-48
2022/07/20 15:37:24;;;;;;;1.27;1.17;;;26.20;52.20;;;;;;6160362;28;20044;-50
2022/07/20 15:40:26;;;;;;;1.63;1.45;;;26.20;52.10;;;;;;6167013;28;20147;-50
2022/07/20 15:43:30;;;;;;;1.40;1.30;;;26.20;52.10;;;;;;6146631;28;20126;-48
2022/07/20 15:46:33;;;;;;;1.38;1.25;;;26.10;52.00;;;;;;6129429;28;20055;-47
2022/07/20 15:49:39;;;;;;;1.25;1.15;;;26.10;52.00;;;;;;6152942;28;20044;-48
2022/07/20 15:52:41;;;;;;;1.40;1.20;;;26.10;51.90;;;;;;6166517;28;20059;-48
2022/07/20 15:55:46;;;;;;;1.00;0.90;;;26.10;51.90;;;;;;6179695;28;20044;-48
2022/07/20 15:58:47;;;;;;;1.40;1.15;;;26.00;51.90;;;;;;6170868;28;20044;-50